sensor_id;sensor_type;location;lat;lon;timestamp;pressure;altitude;pressure_sealevel;temperature;humidity
23361;BME280;11852;50.082;18.554;2023-02-21T00:00:03;98067.0;;;9.31;67.56
23361;BME280;11852;50.082;18.554;2023-02-21T00:01:17;98072.0;;;9.3;67.7
23361;BME280;11852;50.082;18.554;2023-02-21T00:02:40;98069.5;;;9.32;67.73
23361;BME280;11852;50.082;18.554;2023-02-21T00:03:55;98066.5;;;9.32;67.54
23361;BME280;11852;50.082;18.554;2023-02-21T00:05:22;98061.5;;;9.29;67.73
23361;BME280;11852;50.082;18.554;2023-02-21T00:06:47;98059.0;;;9.31;67.67
23361;BME280;11852;50.082;18.554;2023-02-21T00:07:59;98059.5;;;9.26;67.93
23361;BME280;11852;50.082;18.554;2023-02-21T00:09:12;98055.01;;;9.24;67.96
23361;BME280;11852;50.082;18.554;2023-02-21T00:10:43;98052.5;;;9.17;68.44
23361;BME280;11852;50.082;18.554;2023-02-21T00:11:56;98052.0;;;9.16;68.24
23361;BME280;11852;50.082;18.554;2023-02-21T00:13:08;98051.5;;;9.2;68.1
23361;BME280;11852;50.082;18.554;2023-02-21T00:14:31;98048.0;;;9.22;68.27
23361;BME280;11852;50.082;18.554;2023-02-21T00:15:45;98045.0;;;9.07;68.68
23361;BME280;11852;50.082;18.554;2023-02-21T00:16:58;98048.0;;;9.1;68.64
23361;BME280;11852;50.082;18.554;2023-02-21T00:18:13;98046.5;;;9.07;68.63
23361;BME280;11852;50.082;18.554;2023-02-21T00:19:24;98044.0;;;9.07;68.69
23361;BME280;11852;50.082;18.554;2023-02-21T00:20:37;98044.5;;;9.13;68.51
23361;BME280;11852;50.082;18.554;2023-02-21T00:21:58;98043.5;;;9.13;68.67
23361;BME280;11852;50.082;18.554;2023-02-21T00:23:13;98041.5;;;9.08;68.91
23361;BME280;11852;50.082;18.554;2023-02-21T00:24:30;98044.5;;;9.06;69.01
23361;BME280;11852;50.082;18.554;2023-02-21T00:25:40;98044.0;;;9.07;68.94
23361;BME280;11852;50.082;18.554;2023-02-21T00:26:53;98043.0;;;9.16;68.61
23361;BME280;11852;50.082;18.554;2023-02-21T00:28:06;98042.5;;;9.16;68.86
23361;BME280;11852;50.082;18.554;2023-02-21T00:29:18;98042.5;;;9.13;68.82
23361;BME280;11852;50.082;18.554;2023-02-21T00:30:31;98045.0;;;9.19;68.69
23361;BME280;11852;50.082;18.554;2023-02-21T00:31:44;98043.5;;;9.23;68.57
23361;BME280;11852;50.082;18.554;2023-02-21T00:33:07;98047.0;;;9.34;68.44
23361;BME280;11852;50.082;18.554;2023-02-21T00:34:22;98045.5;;;9.28;68.51
23361;BME280;11852;50.082;18.554;2023-02-21T00:35:35;98046.0;;;9.19;68.68
23361;BME280;11852;50.082;18.554;2023-02-21T00:36:50;98049.5;;;9.34;68.07
23361;BME280;11852;50.082;18.554;2023-02-21T00:38:03;98043.5;;;9.29;68.33
23361;BME280;11852;50.082;18.554;2023-02-21T00:39:25;98044.0;;;9.28;68.37
23361;BME280;11852;50.082;18.554;2023-02-21T00:40:37;98044.0;;;9.29;68.32
23361;BME280;11852;50.082;18.554;2023-02-21T00:41:58;98041.5;;;9.3;68.14
23361;BME280;11852;50.082;18.554;2023-02-21T00:43:11;98042.5;;;9.29;68.29
23361;BME280;11852;50.082;18.554;2023-02-21T00:44:23;98039.0;;;9.32;68.2
23361;BME280;11852;50.082;18.554;2023-02-21T00:45:37;98034.5;;;9.44;67.75
23361;BME280;11852;50.082;18.554;2023-02-21T00:46:49;98036.0;;;9.5;67.61
23361;BME280;11852;50.082;18.554;2023-02-21T00:48:03;98039.0;;;9.49;67.8
23361;BME280;11852;50.082;18.554;2023-02-21T00:49:19;98040.5;;;9.39;67.99
23361;BME280;11852;50.082;18.554;2023-02-21T00:50:54;98038.0;;;9.39;68.0
23361;BME280;11852;50.082;18.554;2023-02-21T00:52:07;98038.0;;;9.45;67.66
23361;BME280;11852;50.082;18.554;2023-02-21T00:53:22;98037.5;;;9.5;67.68
23361;BME280;11852;50.082;18.554;2023-02-21T00:54:34;98037.0;;;9.47;67.73
23361;BME280;11852;50.082;18.554;2023-02-21T00:55:59;98037.0;;;9.4;68.04
23361;BME280;11852;50.082;18.554;2023-02-21T00:57:12;98040.5;;;9.48;67.71
23361;BME280;11852;50.082;18.554;2023-02-21T00:58:25;98039.0;;;9.5;67.9
23361;BME280;11852;50.082;18.554;2023-02-21T00:59:41;98037.0;;;9.51;67.87
23361;BME280;11852;50.082;18.554;2023-02-21T01:00:56;98035.0;;;9.67;67.39
23361;BME280;11852;50.082;18.554;2023-02-21T01:02:10;98041.0;;;9.66;67.6
23361;BME280;11852;50.082;18.554;2023-02-21T01:03:24;98038.5;;;9.72;67.46
23361;BME280;11852;50.082;18.554;2023-02-21T01:04:36;98039.5;;;9.68;67.61
23361;BME280;11852;50.082;18.554;2023-02-21T01:05:51;98041.0;;;9.69;67.68
23361;BME280;11852;50.082;18.554;2023-02-21T01:07:03;98044.0;;;9.68;67.82
23361;BME280;11852;50.082;18.554;2023-02-21T01:08:25;98040.5;;;9.63;67.91
23361;BME280;11852;50.082;18.554;2023-02-21T01:10:13;98039.5;;;9.86;67.51
23361;BME280;11852;50.082;18.554;2023-02-21T01:11:27;98043.01;;;9.84;67.77
23361;BME280;11852;50.082;18.554;2023-02-21T01:12:39;98039.5;;;9.9;67.7
23361;BME280;11852;50.082;18.554;2023-02-21T01:14:53;98038.5;;;9.82;67.97
23361;BME280;11852;50.082;18.554;2023-02-21T01:16:15;98040.5;;;9.92;67.72
23361;BME280;11852;50.082;18.554;2023-02-21T01:17:30;98040.5;;;10.02;67.58
23361;BME280;11852;50.082;18.554;2023-02-21T01:18:42;98039.5;;;10.01;67.57
23361;BME280;11852;50.082;18.554;2023-02-21T01:19:59;98044.5;;;10.02;67.64
23361;BME280;11852;50.082;18.554;2023-02-21T01:21:14;98035.5;;;9.91;68.04
23361;BME280;11852;50.082;18.554;2023-02-21T01:22:23;98038.0;;;9.89;68.07
23361;BME280;11852;50.082;18.554;2023-02-21T01:23:36;98042.01;;;9.89;68.1
23361;BME280;11852;50.082;18.554;2023-02-21T01:24:48;98041.5;;;10.07;67.68
23361;BME280;11852;50.082;18.554;2023-02-21T01:26:01;98042.51;;;9.91;68.2
23361;BME280;11852;50.082;18.554;2023-02-21T01:27:32;98035.5;;;10.0;67.94
23361;BME280;11852;50.082;18.554;2023-02-21T01:28:46;98036.5;;;9.97;67.96
23361;BME280;11852;50.082;18.554;2023-02-21T01:29:56;98036.0;;;9.99;67.94
23361;BME280;11852;50.082;18.554;2023-02-21T01:31:48;98034.0;;;9.99;67.93
23361;BME280;11852;50.082;18.554;2023-02-21T01:33:00;98034.0;;;9.99;67.97
23361;BME280;11852;50.082;18.554;2023-02-21T01:34:12;98032.0;;;9.94;68.08
23361;BME280;11852;50.082;18.554;2023-02-21T01:35:24;98031.49;;;10.07;67.82
23361;BME280;11852;50.082;18.554;2023-02-21T01:36:39;98031.0;;;10.0;68.11
23361;BME280;11852;50.082;18.554;2023-02-21T01:37:48;98031.0;;;10.1;67.87
23361;BME280;11852;50.082;18.554;2023-02-21T01:39:00;98025.0;;;10.12;67.81
23361;BME280;11852;50.082;18.554;2023-02-21T01:40:13;98020.49;;;10.08;68.01
23361;BME280;11852;50.082;18.554;2023-02-21T01:41:28;98020.49;;;10.08;68.04
23361;BME280;11852;50.082;18.554;2023-02-21T01:42:45;98026.0;;;9.94;68.53
23361;BME280;11852;50.082;18.554;2023-02-21T01:44:03;98031.5;;;9.91;68.51
23361;BME280;11852;50.082;18.554;2023-02-21T01:46:32;98020.5;;;10.03;68.37
23361;BME280;11852;50.082;18.554;2023-02-21T01:47:49;98018.0;;;10.05;68.32
23361;BME280;11852;50.082;18.554;2023-02-21T01:49:08;98021.5;;;10.14;68.12
23361;BME280;11852;50.082;18.554;2023-02-21T01:50:37;98023.0;;;10.05;68.57
23361;BME280;11852;50.082;18.554;2023-02-21T01:51:49;98014.5;;;10.05;68.53
23361;BME280;11852;50.082;18.554;2023-02-21T01:53:06;98011.0;;;10.01;68.71
23361;BME280;11852;50.082;18.554;2023-02-21T01:54:17;98012.5;;;10.05;68.55
23361;BME280;11852;50.082;18.554;2023-02-21T01:55:30;98012.5;;;10.0;68.68
23361;BME280;11852;50.082;18.554;2023-02-21T01:56:44;98007.49;;;10.06;68.46
23361;BME280;11852;50.082;18.554;2023-02-21T01:57:59;98009.0;;;10.06;68.74
23361;BME280;11852;50.082;18.554;2023-02-21T01:59:08;98001.5;;;9.92;69.07
23361;BME280;11852;50.082;18.554;2023-02-21T02:00:20;98006.0;;;10.06;68.71
23361;BME280;11852;50.082;18.554;2023-02-21T02:01:39;98003.0;;;10.01;68.89
23361;BME280;11852;50.082;18.554;2023-02-21T02:04:08;98001.5;;;9.86;69.4
23361;BME280;11852;50.082;18.554;2023-02-21T02:05:25;98004.0;;;10.01;68.92
23361;BME280;11852;50.082;18.554;2023-02-21T02:06:46;98002.0;;;9.94;69.13
23361;BME280;11852;50.082;18.554;2023-02-21T02:08:03;98005.01;;;9.88;69.43
23361;BME280;11852;50.082;18.554;2023-02-21T02:09:16;98006.0;;;9.99;69.04
23361;BME280;11852;50.082;18.554;2023-02-21T02:10:45;98007.49;;;10.07;68.84
23361;BME280;11852;50.082;18.554;2023-02-21T02:17:17;98001.5;;;10.05;69.1
23361;BME280;11852;50.082;18.554;2023-02-21T02:18:28;97995.49;;;9.94;69.5
23361;BME280;11852;50.082;18.554;2023-02-21T02:23:46;97987.0;;;9.87;69.99
23361;BME280;11852;50.082;18.554;2023-02-21T02:32:49;98000.0;;;9.98;70.15
23361;BME280;11852;50.082;18.554;2023-02-21T02:35:18;97993.01;;;9.9;70.33
23361;BME280;11852;50.082;18.554;2023-02-21T02:36:39;97999.0;;;9.87;70.21
23361;BME280;11852;50.082;18.554;2023-02-21T02:37:53;98006.99;;;9.91;70.21
23361;BME280;11852;50.082;18.554;2023-02-21T02:39:08;98005.01;;;9.87;70.45
23361;BME280;11852;50.082;18.554;2023-02-21T02:44:09;98007.99;;;9.85;72.07
23361;BME280;11852;50.082;18.554;2023-02-21T02:47:01;98003.5;;;9.84;72.87
23361;BME280;11852;50.082;18.554;2023-02-21T02:48:28;98007.99;;;9.9;72.94
23361;BME280;11852;50.082;18.554;2023-02-21T02:49:35;98003.0;;;9.9;73.11
23361;BME280;11852;50.082;18.554;2023-02-21T02:50:47;98000.5;;;9.85;73.63
23361;BME280;11852;50.082;18.554;2023-02-21T02:51:54;97999.0;;;9.84;74.09
23361;BME280;11852;50.082;18.554;2023-02-21T02:53:02;98006.0;;;9.86;74.24
23361;BME280;11852;50.082;18.554;2023-02-21T02:54:21;98009.0;;;9.77;74.6
23361;BME280;11852;50.082;18.554;2023-02-21T02:56:49;98004.51;;;9.68;75.23
23361;BME280;11852;50.082;18.554;2023-02-21T02:57:57;98011.5;;;9.62;75.25
23361;BME280;11852;50.082;18.554;2023-02-21T02:59:09;98010.5;;;9.7;74.9
23361;BME280;11852;50.082;18.554;2023-02-21T03:00:20;98019.99;;;9.72;75.04
23361;BME280;11852;50.082;18.554;2023-02-21T03:06:45;98013.0;;;9.47;77.58
23361;BME280;11852;50.082;18.554;2023-02-21T03:10:22;98011.0;;;9.45;78.21
23361;BME280;11852;50.082;18.554;2023-02-21T03:14:14;98014.0;;;9.41;78.44
23361;BME280;11852;50.082;18.554;2023-02-21T03:15:23;98016.0;;;9.44;78.33
23361;BME280;11852;50.082;18.554;2023-02-21T03:16:32;98021.0;;;9.47;78.43
23361;BME280;11852;50.082;18.554;2023-02-21T03:19:59;98017.51;;;9.29;78.66
23361;BME280;11852;50.082;18.554;2023-02-21T03:21:24;98019.5;;;9.36;78.51
23361;BME280;11852;50.082;18.554;2023-02-21T03:22:35;98021.0;;;9.44;78.33
23361;BME280;11852;50.082;18.554;2023-02-21T03:23:43;98018.0;;;9.36;78.59
23361;BME280;11852;50.082;18.554;2023-02-21T03:24:50;98018.0;;;9.45;78.04
23361;BME280;11852;50.082;18.554;2023-02-21T03:26:03;98012.0;;;9.47;77.99
23361;BME280;11852;50.082;18.554;2023-02-21T03:27:14;98008.5;;;9.43;78.04
23361;BME280;11852;50.082;18.554;2023-02-21T03:28:21;98013.5;;;9.48;77.82
23361;BME280;11852;50.082;18.554;2023-02-21T03:29:41;98009.5;;;9.25;78.65
23361;BME280;11852;50.082;18.554;2023-02-21T03:30:50;98012.5;;;9.22;78.71
23361;BME280;11852;50.082;18.554;2023-02-21T03:32:07;98017.5;;;9.18;79.0
23361;BME280;11852;50.082;18.554;2023-02-21T03:33:14;98013.0;;;9.25;79.4
23361;BME280;11852;50.082;18.554;2023-02-21T03:34:23;98016.0;;;9.28;79.76
23361;BME280;11852;50.082;18.554;2023-02-21T03:35:31;98017.0;;;9.33;79.73
23361;BME280;11852;50.082;18.554;2023-02-21T03:36:44;98017.0;;;9.31;79.88
23361;BME280;11852;50.082;18.554;2023-02-21T03:37:51;98019.0;;;9.27;80.89
23361;BME280;11852;50.082;18.554;2023-02-21T03:38:59;98020.5;;;9.28;80.85
23361;BME280;11852;50.082;18.554;2023-02-21T03:40:09;98011.0;;;9.05;82.31
23361;BME280;11852;50.082;18.554;2023-02-21T03:41:17;98015.5;;;9.09;82.27
23361;BME280;11852;50.082;18.554;2023-02-21T03:42:49;98014.0;;;9.07;82.52
23361;BME280;11852;50.082;18.554;2023-02-21T03:44:00;98010.0;;;9.04;82.87
23361;BME280;11852;50.082;18.554;2023-02-21T03:45:16;98016.0;;;9.07;82.63
23361;BME280;11852;50.082;18.554;2023-02-21T03:46:33;98019.5;;;9.06;82.32
23361;BME280;11852;50.082;18.554;2023-02-21T03:47:54;98017.01;;;9.01;82.94
23361;BME280;11852;50.082;18.554;2023-02-21T03:49:02;98011.5;;;9.04;82.85
23361;BME280;11852;50.082;18.554;2023-02-21T03:50:19;98013.0;;;9.09;82.99
23361;BME280;11852;50.082;18.554;2023-02-21T03:51:28;98007.0;;;9.26;82.69
23361;BME280;11852;50.082;18.554;2023-02-21T03:52:37;98010.5;;;9.1;83.57
23361;BME280;11852;50.082;18.554;2023-02-21T03:53:45;98013.0;;;9.14;83.32
23361;BME280;11852;50.082;18.554;2023-02-21T03:55:05;98011.5;;;9.17;83.21
23361;BME280;11852;50.082;18.554;2023-02-21T03:56:17;98015.0;;;9.18;83.28
23361;BME280;11852;50.082;18.554;2023-02-21T03:57:27;98009.0;;;9.35;82.6
23361;BME280;11852;50.082;18.554;2023-02-21T03:58:36;98013.0;;;9.36;82.68
23361;BME280;11852;50.082;18.554;2023-02-21T04:00:06;98010.5;;;9.26;82.81
23361;BME280;11852;50.082;18.554;2023-02-21T04:01:32;98008.0;;;9.3;82.43
23361;BME280;11852;50.082;18.554;2023-02-21T04:02:53;98008.5;;;9.25;82.56
23361;BME280;11852;50.082;18.554;2023-02-21T04:04:06;98013.0;;;9.15;82.5
23361;BME280;11852;50.082;18.554;2023-02-21T04:05:16;98012.0;;;9.26;81.92
23361;BME280;11852;50.082;18.554;2023-02-21T04:06:23;98011.5;;;9.37;81.5
23361;BME280;11852;50.082;18.554;2023-02-21T04:07:33;98008.5;;;9.32;81.56
23361;BME280;11852;50.082;18.554;2023-02-21T04:08:43;98006.49;;;9.24;81.93
23361;BME280;11852;50.082;18.554;2023-02-21T04:10:00;98014.0;;;9.25;81.75
23361;BME280;11852;50.082;18.554;2023-02-21T04:11:09;98011.5;;;9.12;82.24
23361;BME280;11852;50.082;18.554;2023-02-21T04:12:21;98010.0;;;9.09;82.24
23361;BME280;11852;50.082;18.554;2023-02-21T04:13:30;98008.5;;;9.1;82.27
23361;BME280;11852;50.082;18.554;2023-02-21T04:14:57;98003.0;;;9.08;82.83
23361;BME280;11852;50.082;18.554;2023-02-21T04:17:05;98000.0;;;8.95;83.99
23361;BME280;11852;50.082;18.554;2023-02-21T04:18:18;97998.0;;;8.94;84.18
23361;BME280;11852;50.082;18.554;2023-02-21T04:19:25;97998.0;;;8.88;84.61
23361;BME280;11852;50.082;18.554;2023-02-21T04:20:32;97995.0;;;8.89;84.36
23361;BME280;11852;50.082;18.554;2023-02-21T04:21:39;97988.5;;;8.71;84.08
23361;BME280;11852;50.082;18.554;2023-02-21T04:22:47;97987.5;;;8.89;83.36
23361;BME280;11852;50.082;18.554;2023-02-21T04:23:56;97987.0;;;8.72;83.96
23361;BME280;11852;50.082;18.554;2023-02-21T04:25:03;97983.5;;;8.78;83.71
23361;BME280;11852;50.082;18.554;2023-02-21T04:26:14;97983.0;;;8.77;83.15
23361;BME280;11852;50.082;18.554;2023-02-21T04:27:31;97985.5;;;8.73;83.56
23361;BME280;11852;50.082;18.554;2023-02-21T04:28:39;97986.5;;;8.74;83.4
23361;BME280;11852;50.082;18.554;2023-02-21T04:30:16;97985.5;;;8.78;83.29
23361;BME280;11852;50.082;18.554;2023-02-21T04:31:24;97988.0;;;8.7;83.69
23361;BME280;11852;50.082;18.554;2023-02-21T04:32:37;97983.5;;;8.72;83.32
23361;BME280;11852;50.082;18.554;2023-02-21T04:33:46;97988.0;;;8.88;83.11
23361;BME280;11852;50.082;18.554;2023-02-21T04:34:56;97993.5;;;8.83;83.42
23361;BME280;11852;50.082;18.554;2023-02-21T04:36:05;97998.5;;;8.79;83.61
23361;BME280;11852;50.082;18.554;2023-02-21T04:37:38;97998.5;;;8.86;83.63
23361;BME280;11852;50.082;18.554;2023-02-21T04:39:04;97994.5;;;8.85;84.11
23361;BME280;11852;50.082;18.554;2023-02-21T04:40:21;97998.5;;;8.82;84.32
23361;BME280;11852;50.082;18.554;2023-02-21T04:41:26;98001.0;;;8.64;85.01
23361;BME280;11852;50.082;18.554;2023-02-21T04:42:33;97999.5;;;8.69;84.57
23361;BME280;11852;50.082;18.554;2023-02-21T04:43:51;98002.5;;;8.55;85.26
23361;BME280;11852;50.082;18.554;2023-02-21T04:44:58;97996.0;;;8.42;85.54
23361;BME280;11852;50.082;18.554;2023-02-21T04:46:05;97995.49;;;8.56;84.99
23361;BME280;11852;50.082;18.554;2023-02-21T04:47:13;97990.0;;;8.44;85.57
23361;BME280;11852;50.082;18.554;2023-02-21T04:48:21;97995.0;;;8.53;85.35
23361;BME280;11852;50.082;18.554;2023-02-21T04:49:30;97996.5;;;8.48;85.63
23361;BME280;11852;50.082;18.554;2023-02-21T04:50:50;97996.0;;;8.47;85.61
23361;BME280;11852;50.082;18.554;2023-02-21T04:52:30;97988.0;;;8.43;85.61
23361;BME280;11852;50.082;18.554;2023-02-21T04:53:38;97996.5;;;8.45;85.6
23361;BME280;11852;50.082;18.554;2023-02-21T04:54:50;97995.5;;;8.38;85.82
23361;BME280;11852;50.082;18.554;2023-02-21T04:56:30;97997.0;;;8.34;85.78
23361;BME280;11852;50.082;18.554;2023-02-21T04:57:37;97994.49;;;8.45;85.46
23361;BME280;11852;50.082;18.554;2023-02-21T04:58:45;97987.0;;;8.29;86.1
23361;BME280;11852;50.082;18.554;2023-02-21T04:59:57;97994.0;;;8.3;86.03
23361;BME280;11852;50.082;18.554;2023-02-21T05:01:07;97993.5;;;8.38;85.72
23361;BME280;11852;50.082;18.554;2023-02-21T05:02:14;97989.5;;;8.42;85.77
23361;BME280;11852;50.082;18.554;2023-02-21T05:03:22;97994.5;;;8.48;85.51
23361;BME280;11852;50.082;18.554;2023-02-21T05:04:29;98001.0;;;8.51;85.51
23361;BME280;11852;50.082;18.554;2023-02-21T05:05:37;97996.0;;;8.43;85.75
23361;BME280;11852;50.082;18.554;2023-02-21T05:06:47;97999.0;;;8.29;86.18
23361;BME280;11852;50.082;18.554;2023-02-21T05:07:55;98000.0;;;8.38;85.54
23361;BME280;11852;50.082;18.554;2023-02-21T05:09:04;97997.0;;;8.22;86.15
23361;BME280;11852;50.082;18.554;2023-02-21T05:10:13;97997.0;;;8.29;85.73
23361;BME280;11852;50.082;18.554;2023-02-21T05:11:25;97994.49;;;8.39;85.67
23361;BME280;11852;50.082;18.554;2023-02-21T05:12:32;97997.0;;;8.39;85.76
23361;BME280;11852;50.082;18.554;2023-02-21T05:13:49;97997.5;;;8.29;85.98
23361;BME280;11852;50.082;18.554;2023-02-21T05:15:41;97999.5;;;8.41;85.82
23361;BME280;11852;50.082;18.554;2023-02-21T05:16:51;98001.0;;;8.55;85.4
23361;BME280;11852;50.082;18.554;2023-02-21T05:18:01;98002.0;;;8.43;85.9
23361;BME280;11852;50.082;18.554;2023-02-21T05:19:08;97999.5;;;8.36;85.88
23361;BME280;11852;50.082;18.554;2023-02-21T05:20:52;97996.0;;;8.37;85.73
23361;BME280;11852;50.082;18.554;2023-02-21T05:22:00;98000.0;;;8.27;86.14
23361;BME280;11852;50.082;18.554;2023-02-21T05:23:11;98003.0;;;8.4;85.7
23361;BME280;11852;50.082;18.554;2023-02-21T05:24:25;98000.0;;;8.41;85.51
23361;BME280;11852;50.082;18.554;2023-02-21T05:26:08;98002.0;;;8.4;85.79
23361;BME280;11852;50.082;18.554;2023-02-21T05:27:24;98001.5;;;8.43;85.58
23361;BME280;11852;50.082;18.554;2023-02-21T05:28:32;98000.0;;;8.43;85.81
23361;BME280;11852;50.082;18.554;2023-02-21T05:30:59;98005.0;;;8.53;85.52
23361;BME280;11852;50.082;18.554;2023-02-21T05:32:25;98008.5;;;8.41;85.76
23361;BME280;11852;50.082;18.554;2023-02-21T05:34:47;98012.5;;;8.5;85.57
23361;BME280;11852;50.082;18.554;2023-02-21T05:36:06;98011.0;;;8.49;85.63
23361;BME280;11852;50.082;18.554;2023-02-21T05:37:14;98015.5;;;8.55;85.31
23361;BME280;11852;50.082;18.554;2023-02-21T05:38:56;98015.5;;;8.49;85.62
23361;BME280;11852;50.082;18.554;2023-02-21T05:40:06;98011.5;;;8.53;85.65
23361;BME280;11852;50.082;18.554;2023-02-21T05:41:14;98013.5;;;8.53;85.6
23361;BME280;11852;50.082;18.554;2023-02-21T05:42:22;98023.0;;;8.54;85.63
23361;BME280;11852;50.082;18.554;2023-02-21T05:43:31;98018.5;;;8.5;85.78
23361;BME280;11852;50.082;18.554;2023-02-21T05:44:44;98019.5;;;8.54;85.81
23361;BME280;11852;50.082;18.554;2023-02-21T05:45:54;98029.0;;;8.63;85.46
23361;BME280;11852;50.082;18.554;2023-02-21T05:47:02;98029.51;;;8.51;86.07
23361;BME280;11852;50.082;18.554;2023-02-21T05:48:13;98033.5;;;8.54;85.9
23361;BME280;11852;50.082;18.554;2023-02-21T05:50:13;98039.0;;;8.67;85.47
23361;BME280;11852;50.082;18.554;2023-02-21T05:51:21;98035.5;;;8.45;86.28
23361;BME280;11852;50.082;18.554;2023-02-21T05:52:39;98031.0;;;8.41;86.29
23361;BME280;11852;50.082;18.554;2023-02-21T05:53:46;98036.0;;;8.57;85.76
23361;BME280;11852;50.082;18.554;2023-02-21T05:55:28;98034.5;;;8.39;86.07
23361;BME280;11852;50.082;18.554;2023-02-21T05:56:39;98033.0;;;8.36;86.28
23361;BME280;11852;50.082;18.554;2023-02-21T05:57:50;98035.5;;;8.39;86.22
23361;BME280;11852;50.082;18.554;2023-02-21T05:59:07;98037.0;;;8.35;86.25
23361;BME280;11852;50.082;18.554;2023-02-21T06:00:33;98037.0;;;8.25;86.48
23361;BME280;11852;50.082;18.554;2023-02-21T06:02:00;98034.5;;;8.45;86.07
23361;BME280;11852;50.082;18.554;2023-02-21T06:03:07;98036.5;;;8.54;85.78
23361;BME280;11852;50.082;18.554;2023-02-21T06:04:15;98041.0;;;8.53;85.9
23361;BME280;11852;50.082;18.554;2023-02-21T06:05:40;98040.5;;;8.57;85.93
23361;BME280;11852;50.082;18.554;2023-02-21T06:06:52;98044.0;;;8.59;85.87
23361;BME280;11852;50.082;18.554;2023-02-21T06:08:01;98045.0;;;8.64;85.75
23361;BME280;11852;50.082;18.554;2023-02-21T06:09:08;98048.0;;;8.6;85.91
23361;BME280;11852;50.082;18.554;2023-02-21T06:10:15;98046.5;;;8.61;85.87
23361;BME280;11852;50.082;18.554;2023-02-21T06:11:40;98046.0;;;8.57;85.97
23361;BME280;11852;50.082;18.554;2023-02-21T06:12:58;98044.99;;;8.53;86.03
23361;BME280;11852;50.082;18.554;2023-02-21T06:14:20;98047.5;;;8.47;86.21
23361;BME280;11852;50.082;18.554;2023-02-21T06:15:52;98051.0;;;8.55;86.05
23361;BME280;11852;50.082;18.554;2023-02-21T06:17:05;98054.51;;;8.51;86.21
23361;BME280;11852;50.082;18.554;2023-02-21T06:18:15;98056.0;;;8.49;86.18
23361;BME280;11852;50.082;18.554;2023-02-21T06:19:22;98049.0;;;8.52;86.15
23361;BME280;11852;50.082;18.554;2023-02-21T06:20:56;98047.5;;;8.66;85.73
23361;BME280;11852;50.082;18.554;2023-02-21T06:22:04;98047.0;;;8.7;86.32
23361;BME280;11852;50.082;18.554;2023-02-21T06:23:11;98046.0;;;8.52;86.13
23361;BME280;11852;50.082;18.554;2023-02-21T06:24:18;98047.5;;;8.45;86.43
23361;BME280;11852;50.082;18.554;2023-02-21T06:25:27;98046.5;;;8.42;86.32
23361;BME280;11852;50.082;18.554;2023-02-21T06:27:18;98045.0;;;8.42;86.4
23361;BME280;11852;50.082;18.554;2023-02-21T06:28:32;98046.5;;;8.45;86.35
23361;BME280;11852;50.082;18.554;2023-02-21T06:29:40;98043.51;;;8.48;86.21
23361;BME280;11852;50.082;18.554;2023-02-21T06:30:49;98043.51;;;8.51;86.08
23361;BME280;11852;50.082;18.554;2023-02-21T06:31:59;98045.49;;;8.52;86.09
23361;BME280;11852;50.082;18.554;2023-02-21T06:33:06;98044.5;;;8.38;86.63
23361;BME280;11852;50.082;18.554;2023-02-21T06:34:14;98045.49;;;8.46;86.22
23361;BME280;11852;50.082;18.554;2023-02-21T06:35:23;98051.5;;;8.55;85.88
23361;BME280;11852;50.082;18.554;2023-02-21T06:36:31;98050.5;;;8.43;86.32
23361;BME280;11852;50.082;18.554;2023-02-21T06:37:40;98048.5;;;8.48;86.01
23361;BME280;11852;50.082;18.554;2023-02-21T06:38:57;98051.5;;;8.38;86.4
23361;BME280;11852;50.082;18.554;2023-02-21T06:40:14;98055.0;;;8.47;86.1
23361;BME280;11852;50.082;18.554;2023-02-21T06:42:06;98051.5;;;8.4;86.19
23361;BME280;11852;50.082;18.554;2023-02-21T06:43:14;98053.5;;;8.4;86.35
23361;BME280;11852;50.082;18.554;2023-02-21T06:44:31;98055.0;;;8.43;86.14
23361;BME280;11852;50.082;18.554;2023-02-21T06:45:39;98055.0;;;8.46;85.99
23361;BME280;11852;50.082;18.554;2023-02-21T06:46:51;98056.99;;;8.56;85.63
23361;BME280;11852;50.082;18.554;2023-02-21T06:48:03;98056.49;;;8.59;85.76
23361;BME280;11852;50.082;18.554;2023-02-21T06:49:42;98056.49;;;8.56;85.82
23361;BME280;11852;50.082;18.554;2023-02-21T06:51:36;98062.0;;;8.65;85.53
23361;BME280;11852;50.082;18.554;2023-02-21T06:52:42;98063.5;;;8.6;85.85
23361;BME280;11852;50.082;18.554;2023-02-21T06:54:50;98062.5;;;8.56;85.83
23361;BME280;11852;50.082;18.554;2023-02-21T06:55:59;98059.5;;;8.56;85.76
23361;BME280;11852;50.082;18.554;2023-02-21T06:57:20;98067.0;;;8.56;85.83
23361;BME280;11852;50.082;18.554;2023-02-21T06:58:27;98068.5;;;8.62;85.67
23361;BME280;11852;50.082;18.554;2023-02-21T06:59:35;98072.0;;;8.73;85.41
23361;BME280;11852;50.082;18.554;2023-02-21T07:00:43;98074.0;;;8.73;85.43
23361;BME280;11852;50.082;18.554;2023-02-21T07:02:16;98072.5;;;8.72;85.44
23361;BME280;11852;50.082;18.554;2023-02-21T07:03:39;98078.5;;;8.8;85.13
23361;BME280;11852;50.082;18.554;2023-02-21T07:05:02;98078.0;;;8.8;85.17
23361;BME280;11852;50.082;18.554;2023-02-21T07:06:49;98073.0;;;8.8;85.1
23361;BME280;11852;50.082;18.554;2023-02-21T07:07:59;98078.0;;;8.82;85.1
23361;BME280;11852;50.082;18.554;2023-02-21T07:09:06;98078.5;;;8.85;85.05
23361;BME280;11852;50.082;18.554;2023-02-21T07:10:18;98082.49;;;8.84;85.04
23361;BME280;11852;50.082;18.554;2023-02-21T07:11:44;98085.0;;;8.96;84.86
23361;BME280;11852;50.082;18.554;2023-02-21T07:12:52;98084.0;;;8.93;84.96
23361;BME280;11852;50.082;18.554;2023-02-21T07:14:03;98085.5;;;8.92;84.82
23361;BME280;11852;50.082;18.554;2023-02-21T07:15:13;98090.0;;;8.97;84.74
23361;BME280;11852;50.082;18.554;2023-02-21T07:16:27;98087.5;;;8.93;84.91
23361;BME280;11852;50.082;18.554;2023-02-21T07:17:52;98090.5;;;8.99;84.76
23361;BME280;11852;50.082;18.554;2023-02-21T07:18:59;98091.0;;;8.98;84.79
23361;BME280;11852;50.082;18.554;2023-02-21T07:20:07;98093.5;;;8.98;84.75
23361;BME280;11852;50.082;18.554;2023-02-21T07:22:37;98094.0;;;8.99;84.63
23361;BME280;11852;50.082;18.554;2023-02-21T07:23:45;98097.0;;;8.99;84.76
23361;BME280;11852;50.082;18.554;2023-02-21T07:25:49;98097.0;;;9.06;84.65
23361;BME280;11852;50.082;18.554;2023-02-21T07:27:06;98102.0;;;8.98;84.87
23361;BME280;11852;50.082;18.554;2023-02-21T07:28:40;98104.0;;;9.02;84.69
23361;BME280;11852;50.082;18.554;2023-02-21T07:29:48;98104.51;;;9.04;84.73